sensor_id;sensor_type;location;lat;lon;timestamp;temperature;humidity
41592;DHT22;28026;48.562;14.440;2023-10-08T00:01:39;15.00;99.90
41592;DHT22;28026;48.562;14.440;2023-10-08T00:04:12;15.00;99.90
41592;DHT22;28026;48.562;14.440;2023-10-08T00:06:49;15.10;99.90
41592;DHT22;28026;48.562;14.440;2023-10-08T00:09:23;15.10;99.90
41592;DHT22;28026;48.562;14.440;2023-10-08T00:11:53;15.10;99.90
41592;DHT22;28026;48.562;14.440;2023-10-08T00:14:25;15.20;99.90
41592;DHT22;28026;48.562;14.440;2023-10-08T00:16:56;15.20;99.90
41592;DHT22;28026;48.562;14.440;2023-10-08T00:19:27;15.20;99.90
41592;DHT22;28026;48.562;14.440;2023-10-08T00:22:04;15.20;99.90
41592;DHT22;28026;48.562;14.440;2023-10-08T00:24:38;15.20;99.90
41592;DHT22;28026;48.562;14.440;2023-10-08T00:27:12;15.20;99.90
41592;DHT22;28026;48.562;14.440;2023-10-08T00:29:45;15.20;99.90
41592;DHT22;28026;48.562;14.440;2023-10-08T00:32:16;15.20;99.90
41592;DHT22;28026;48.562;14.440;2023-10-08T00:34:47;15.20;99.90
41592;DHT22;28026;48.562;14.440;2023-10-08T00:37:18;15.10;99.90
41592;DHT22;28026;48.562;14.440;2023-10-08T00:39:54;15.10;99.90
41592;DHT22;28026;48.562;14.440;2023-10-08T00:42:27;15.10;99.90
41592;DHT22;28026;48.562;14.440;2023-10-08T00:44:59;15.10;99.90
41592;DHT22;28026;48.562;14.440;2023-10-08T00:47:31;15.00;99.90
41592;DHT22;28026;48.562;14.440;2023-10-08T00:50:10;15.10;99.90
41592;DHT22;28026;48.562;14.440;2023-10-08T00:52:50;15.10;99.90
41592;DHT22;28026;48.562;14.440;2023-10-08T00:55:30;15.10;99.90
41592;DHT22;28026;48.562;14.440;2023-10-08T00:58:04;15.20;99.90
41592;DHT22;28026;48.562;14.440;2023-10-08T01:00:40;15.20;99.90
41592;DHT22;28026;48.562;14.440;2023-10-08T01:03:12;15.20;99.90
41592;DHT22;28026;48.562;14.440;2023-10-08T01:05:46;15.20;99.90
41592;DHT22;28026;48.562;14.440;2023-10-08T01:08:17;15.10;99.90
41592;DHT22;28026;48.562;14.440;2023-10-08T01:11:18;15.10;99.90
41592;DHT22;28026;48.562;14.440;2023-10-08T01:14:01;15.10;99.90
41592;DHT22;28026;48.562;14.440;2023-10-08T01:16:37;15.00;99.90
41592;DHT22;28026;48.562;14.440;2023-10-08T01:19:09;15.00;99.90
41592;DHT22;28026;48.562;14.440;2023-10-08T01:21:44;15.10;99.90
41592;DHT22;28026;48.562;14.440;2023-10-08T01:24:15;15.00;99.90
41592;DHT22;28026;48.562;14.440;2023-10-08T01:26:47;15.00;99.90
41592;DHT22;28026;48.562;14.440;2023-10-08T01:29:18;14.90;99.90
41592;DHT22;28026;48.562;14.440;2023-10-08T01:31:49;14.90;99.90
41592;DHT22;28026;48.562;14.440;2023-10-08T01:34:20;14.80;99.90
41592;DHT22;28026;48.562;14.440;2023-10-08T01:36:57;14.80;99.90
41592;DHT22;28026;48.562;14.440;2023-10-08T01:39:36;14.80;99.90
41592;DHT22;28026;48.562;14.440;2023-10-08T01:42:07;14.80;99.90
41592;DHT22;28026;48.562;14.440;2023-10-08T01:44:46;14.80;99.90
41592;DHT22;28026;48.562;14.440;2023-10-08T01:47:24;14.80;99.90
41592;DHT22;28026;48.562;14.440;2023-10-08T01:49:56;14.80;99.90
41592;DHT22;28026;48.562;14.440;2023-10-08T01:52:35;14.80;99.90
41592;DHT22;28026;48.562;14.440;2023-10-08T01:55:06;14.80;99.90
41592;DHT22;28026;48.562;14.440;2023-10-08T01:57:41;14.80;99.90
41592;DHT22;28026;48.562;14.440;2023-10-08T02:00:14;14.80;99.90
41592;DHT22;28026;48.562;14.440;2023-10-08T02:02:50;14.90;99.90
41592;DHT22;28026;48.562;14.440;2023-10-08T02:05:21;14.90;99.90
41592;DHT22;28026;48.562;14.440;2023-10-08T02:07:52;14.90;99.90
41592;DHT22;28026;48.562;14.440;2023-10-08T02:10:25;15.00;99.90
41592;DHT22;28026;48.562;14.440;2023-10-08T02:12:56;15.00;99.90
41592;DHT22;28026;48.562;14.440;2023-10-08T02:15:27;15.10;99.90
41592;DHT22;28026;48.562;14.440;2023-10-08T02:17:58;15.10;99.90
41592;DHT22;28026;48.562;14.440;2023-10-08T02:20:29;15.10;99.90
41592;DHT22;28026;48.562;14.440;2023-10-08T02:23:00;15.10;99.90
41592;DHT22;28026;48.562;14.440;2023-10-08T02:25:32;15.10;99.90
41592;DHT22;28026;48.562;14.440;2023-10-08T02:28:06;15.20;99.90
41592;DHT22;28026;48.562;14.440;2023-10-08T02:30:46;15.20;99.90
41592;DHT22;28026;48.562;14.440;2023-10-08T02:33:16;15.20;99.90
41592;DHT22;28026;48.562;14.440;2023-10-08T02:35:47;15.10;99.90
41592;DHT22;28026;48.562;14.440;2023-10-08T02:38:19;15.10;99.90
41592;DHT22;28026;48.562;14.440;2023-10-08T02:40:51;15.10;99.90
41592;DHT22;28026;48.562;14.440;2023-10-08T02:43:27;15.00;99.90
41592;DHT22;28026;48.562;14.440;2023-10-08T02:46:00;15.00;99.90
41592;DHT22;28026;48.562;14.440;2023-10-08T02:48:31;14.90;99.90
41592;DHT22;28026;48.562;14.440;2023-10-08T02:51:02;14.90;99.90
41592;DHT22;28026;48.562;14.440;2023-10-08T02:53:44;14.80;99.90
41592;DHT22;28026;48.562;14.440;2023-10-08T02:56:15;14.80;99.90
41592;DHT22;28026;48.562;14.440;2023-10-08T02:58:46;14.80;99.90
41592;DHT22;28026;48.562;14.440;2023-10-08T03:01:18;14.90;99.90
41592;DHT22;28026;48.562;14.440;2023-10-08T03:03:50;14.90;99.90
41592;DHT22;28026;48.562;14.440;2023-10-08T03:06:24;15.00;99.90
41592;DHT22;28026;48.562;14.440;2023-10-08T03:08:55;14.90;99.90
41592;DHT22;28026;48.562;14.440;2023-10-08T03:11:26;15.00;99.90
41592;DHT22;28026;48.562;14.440;2023-10-08T03:13:57;14.90;99.90
41592;DHT22;28026;48.562;14.440;2023-10-08T03:16:29;14.90;99.90
41592;DHT22;28026;48.562;14.440;2023-10-08T03:19:04;14.80;99.90
41592;DHT22;28026;48.562;14.440;2023-10-08T03:21:36;14.80;99.90
41592;DHT22;28026;48.562;14.440;2023-10-08T03:24:07;14.80;99.90
41592;DHT22;28026;48.562;14.440;2023-10-08T03:27:05;14.70;99.90
41592;DHT22;28026;48.562;14.440;2023-10-08T03:29:37;14.70;99.90
41592;DHT22;28026;48.562;14.440;2023-10-08T03:32:13;14.80;99.90
41592;DHT22;28026;48.562;14.440;2023-10-08T03:34:49;14.80;99.90
41592;DHT22;28026;48.562;14.440;2023-10-08T03:37:24;14.80;99.90
41592;DHT22;28026;48.562;14.440;2023-10-08T03:40:11;14.90;99.90
41592;DHT22;28026;48.562;14.440;2023-10-08T03:43:12;14.90;99.90
41592;DHT22;28026;48.562;14.440;2023-10-08T03:46:04;15.00;99.90
41592;DHT22;28026;48.562;14.440;2023-10-08T03:48:36;15.00;99.90
41592;DHT22;28026;48.562;14.440;2023-10-08T03:51:07;15.10;99.90
41592;DHT22;28026;48.562;14.440;2023-10-08T03:53:42;15.10;99.90
41592;DHT22;28026;48.562;14.440;2023-10-08T03:56:28;15.00;99.90
41592;DHT22;28026;48.562;14.440;2023-10-08T03:59:05;15.00;99.90
41592;DHT22;28026;48.562;14.440;2023-10-08T04:01:50;14.90;99.90
41592;DHT22;28026;48.562;14.440;2023-10-08T04:04:25;14.90;99.90
41592;DHT22;28026;48.562;14.440;2023-10-08T04:07:01;14.90;99.90
41592;DHT22;28026;48.562;14.440;2023-10-08T04:09:52;14.90;99.90
41592;DHT22;28026;48.562;14.440;2023-10-08T04:12:39;14.90;99.90
41592;DHT22;28026;48.562;14.440;2023-10-08T04:15:20;14.90;99.90
41592;DHT22;28026;48.562;14.440;2023-10-08T04:17:51;14.80;99.90
41592;DHT22;28026;48.562;14.440;2023-10-08T04:20:22;14.90;99.90
41592;DHT22;28026;48.562;14.440;2023-10-08T04:23:09;14.80;99.90
41592;DHT22;28026;48.562;14.440;2023-10-08T04:25:51;14.80;99.90
41592;DHT22;28026;48.562;14.440;2023-10-08T04:28:25;14.80;99.90
41592;DHT22;28026;48.562;14.440;2023-10-08T04:30:59;14.80;99.90
41592;DHT22;28026;48.562;14.440;2023-10-08T04:33:33;14.80;99.90
41592;DHT22;28026;48.562;14.440;2023-10-08T04:36:04;14.70;99.90
41592;DHT22;28026;48.562;14.440;2023-10-08T04:38:37;14.70;99.90
41592;DHT22;28026;48.562;14.440;2023-10-08T04:41:11;14.60;99.90
41592;DHT22;28026;48.562;14.440;2023-10-08T04:43:42;14.60;99.90
41592;DHT22;28026;48.562;14.440;2023-10-08T04:46:13;14.70;99.90
41592;DHT22;28026;48.562;14.440;2023-10-08T04:48:50;14.60;99.90
41592;DHT22;28026;48.562;14.440;2023-10-08T04:51:21;14.70;99.90
41592;DHT22;28026;48.562;14.440;2023-10-08T04:53:53;14.60;99.90
41592;DHT22;28026;48.562;14.440;2023-10-08T04:56:25;14.60;99.90
41592;DHT22;28026;48.562;14.440;2023-10-08T04:58:58;14.60;99.90
41592;DHT22;28026;48.562;14.440;2023-10-08T05:01:29;14.60;99.90
41592;DHT22;28026;48.562;14.440;2023-10-08T05:04:10;14.50;99.90
41592;DHT22;28026;48.562;14.440;2023-10-08T05:06:54;14.50;99.90
41592;DHT22;28026;48.562;14.440;2023-10-08T05:09:45;14.50;99.90
41592;DHT22;28026;48.562;14.440;2023-10-08T05:12:36;14.40;99.90
41592;DHT22;28026;48.562;14.440;2023-10-08T05:15:08;14.40;99.90
41592;DHT22;28026;48.562;14.440;2023-10-08T05:17:47;14.30;99.90
41592;DHT22;28026;48.562;14.440;2023-10-08T05:20:21;14.30;99.90
41592;DHT22;28026;48.562;14.440;2023-10-08T05:23:31;14.20;99.90
41592;DHT22;28026;48.562;14.440;2023-10-08T05:26:23;14.20;99.90
41592;DHT22;28026;48.562;14.440;2023-10-08T05:29:11;14.30;99.90
41592;DHT22;28026;48.562;14.440;2023-10-08T05:32:06;14.30;99.90
41592;DHT22;28026;48.562;14.440;2023-10-08T05:34:55;14.20;99.90
41592;DHT22;28026;48.562;14.440;2023-10-08T05:37:48;14.30;99.90
41592;DHT22;28026;48.562;14.440;2023-10-08T05:40:32;14.30;99.90
41592;DHT22;28026;48.562;14.440;2023-10-08T05:43:33;14.30;99.90
41592;DHT22;28026;48.562;14.440;2023-10-08T05:46:10;14.30;99.90
41592;DHT22;28026;48.562;14.440;2023-10-08T05:49:09;14.30;99.90
41592;DHT22;28026;48.562;14.440;2023-10-08T05:51:41;14.30;99.90
41592;DHT22;28026;48.562;14.440;2023-10-08T05:54:18;14.40;99.90
41592;DHT22;28026;48.562;14.440;2023-10-08T05:57:09;14.30;99.90
41592;DHT22;28026;48.562;14.440;2023-10-08T05:59:44;14.40;99.90
41592;DHT22;28026;48.562;14.440;2023-10-08T06:05:19;14.40;99.90
41592;DHT22;28026;48.562;14.440;2023-10-08T06:07:54;14.20;99.90
41592;DHT22;28026;48.562;14.440;2023-10-08T06:10:26;14.30;99.90
41592;DHT22;28026;48.562;14.440;2023-10-08T06:16:00;14.30;99.90
41592;DHT22;28026;48.562;14.440;2023-10-08T06:18:32;14.50;99.90
41592;DHT22;28026;48.562;14.440;2023-10-08T06:21:05;14.60;99.90
41592;DHT22;28026;48.562;14.440;2023-10-08T06:23:40;14.60;99.90
41592;DHT22;28026;48.562;14.440;2023-10-08T06:26:13;14.60;99.90
41592;DHT22;28026;48.562;14.440;2023-10-08T06:28:44;14.70;99.90
41592;DHT22;28026;48.562;14.440;2023-10-08T06:31:16;14.90;99.90
41592;DHT22;28026;48.562;14.440;2023-10-08T06:33:46;15.10;99.90
41592;DHT22;28026;48.562;14.440;2023-10-08T06:36:19;15.30;99.90
41592;DHT22;28026;48.562;14.440;2023-10-08T06:38:54;15.50;99.90
41592;DHT22;28026;48.562;14.440;2023-10-08T06:41:25;15.70;99.90
41592;DHT22;28026;48.562;14.440;2023-10-08T06:44:04;15.90;99.90
41592;DHT22;28026;48.562;14.440;2023-10-08T06:46:44;15.70;99.90
41592;DHT22;28026;48.562;14.440;2023-10-08T06:49:16;15.80;99.90
41592;DHT22;28026;48.562;14.440;2023-10-08T06:51:49;15.70;99.90
41592;DHT22;28026;48.562;14.440;2023-10-08T06:54:23;15.60;99.90
41592;DHT22;28026;48.562;14.440;2023-10-08T06:56:54;15.60;99.90
41592;DHT22;28026;48.562;14.440;2023-10-08T06:59:25;15.50;99.90
41592;DHT22;28026;48.562;14.440;2023-10-08T07:02:01;15.50;99.90
41592;DHT22;28026;48.562;14.440;2023-10-08T07:04:33;15.50;99.90
41592;DHT22;28026;48.562;14.440;2023-10-08T07:07:04;15.40;99.90
41592;DHT22;28026;48.562;14.440;2023-10-08T07:09:39;15.40;99.90
41592;DHT22;28026;48.562;14.440;2023-10-08T07:12:14;15.30;99.90
41592;DHT22;28026;48.562;14.440;2023-10-08T07:14:45;15.30;99.90
41592;DHT22;28026;48.562;14.440;2023-10-08T07:17:17;15.40;99.90
41592;DHT22;28026;48.562;14.440;2023-10-08T07:19:50;15.30;99.90
41592;DHT22;28026;48.562;14.440;2023-10-08T07:22:21;15.40;99.90
41592;DHT22;28026;48.562;14.440;2023-10-08T07:24:58;15.30;99.90
41592;DHT22;28026;48.562;14.440;2023-10-08T07:27:29;15.40;99.90
41592;DHT22;28026;48.562;14.440;2023-10-08T07:30:02;15.50;99.90
41592;DHT22;28026;48.562;14.440;2023-10-08T07:32:43;15.50;99.90
41592;DHT22;28026;48.562;14.440;2023-10-08T07:35:15;15.30;99.90
41592;DHT22;28026;48.562;14.440;2023-10-08T07:37:59;15.40;99.90
41592;DHT22;28026;48.562;14.440;2023-10-08T07:40:33;15.30;99.90
41592;DHT22;28026;48.562;14.440;2023-10-08T07:43:07;15.40;99.90
41592;DHT22;28026;48.562;14.440;2023-10-08T07:45:40;15.30;99.90
41592;DHT22;28026;48.562;14.440;2023-10-08T07:48:15;15.30;99.90
41592;DHT22;28026;48.562;14.440;2023-10-08T07:50:46;15.30;99.90
41592;DHT22;28026;48.562;14.440;2023-10-08T07:53:17;15.40;99.90
41592;DHT22;28026;48.562;14.440;2023-10-08T07:55:48;15.40;99.90
41592;DHT22;28026;48.562;14.440;2023-10-08T07:58:19;15.40;99.90
41592;DHT22;28026;48.562;14.440;2023-10-08T08:00:50;15.50;99.90
41592;DHT22;28026;48.562;14.440;2023-10-08T08:03:27;15.60;99.90
41592;DHT22;28026;48.562;14.440;2023-10-08T08:05:57;15.50;99.90
41592;DHT22;28026;48.562;14.440;2023-10-08T08:08:29;15.60;99.90
41592;DHT22;28026;48.562;14.440;2023-10-08T08:11:00;15.80;99.90
41592;DHT22;28026;48.562;14.440;2023-10-08T08:13:36;15.90;99.90
41592;DHT22;28026;48.562;14.440;2023-10-08T08:16:06;16.00;99.90
41592;DHT22;28026;48.562;14.440;2023-10-08T08:18:51;16.00;99.90
41592;DHT22;28026;48.562;14.440;2023-10-08T08:21:27;16.10;99.90
41592;DHT22;28026;48.562;14.440;2023-10-08T08:24:01;16.10;99.90
41592;DHT22;28026;48.562;14.440;2023-10-08T08:26:39;15.90;99.90
41592;DHT22;28026;48.562;14.440;2023-10-08T08:29:11;15.90;99.90
41592;DHT22;28026;48.562;14.440;2023-10-08T08:31:45;15.90;99.90
41592;DHT22;28026;48.562;14.440;2023-10-08T08:34:16;15.90;99.90
41592;DHT22;28026;48.562;14.440;2023-10-08T08:36:50;16.00;99.90
41592;DHT22;28026;48.562;14.440;2023-10-08T08:39:21;15.80;99.90
41592;DHT22;28026;48.562;14.440;2023-10-08T08:42:03;15.90;99.90
41592;DHT22;28026;48.562;14.440;2023-10-08T08:44:38;16.00;99.90
41592;DHT22;28026;48.562;14.440;2023-10-08T08:47:17;16.10;99.90
41592;DHT22;28026;48.562;14.440;2023-10-08T08:49:51;16.10;99.90
41592;DHT22;28026;48.562;14.440;2023-10-08T08:52:25;16.10;99.90
41592;DHT22;28026;48.562;14.440;2023-10-08T08:54:57;16.20;99.90
41592;DHT22;28026;48.562;14.440;2023-10-08T08:57:28;16.40;99.90
41592;DHT22;28026;48.562;14.440;2023-10-08T09:00:01;16.30;99.90
41592;DHT22;28026;48.562;14.440;2023-10-08T09:02:39;16.20;99.90
41592;DHT22;28026;48.562;14.440;2023-10-08T09:05:10;16.40;99.90
41592;DHT22;28026;48.562;14.440;2023-10-08T09:07:56;16.50;99.90
41592;DHT22;28026;48.562;14.440;2023-10-08T09:10:36;16.30;99.90
41592;DHT22;28026;48.562;14.440;2023-10-08T09:13:22;16.70;99.90
41592;DHT22;28026;48.562;14.440;2023-10-08T09:16:02;16.70;99.90
41592;DHT22;28026;48.562;14.440;2023-10-08T09:18:38;16.70;99.90
41592;DHT22;28026;48.562;14.440;2023-10-08T09:21:17;16.70;99.90
41592;DHT22;28026;48.562;14.440;2023-10-08T09:23:53;16.80;99.90
41592;DHT22;28026;48.562;14.440;2023-10-08T09:26:25;16.70;99.90
41592;DHT22;28026;48.562;14.440;2023-10-08T09:28:59;16.60;99.90
41592;DHT22;28026;48.562;14.440;2023-10-08T09:31:32;16.30;99.90
41592;DHT22;28026;48.562;14.440;2023-10-08T09:34:05;16.30;99.90
41592;DHT22;28026;48.562;14.440;2023-10-08T09:36:36;16.30;99.90
41592;DHT22;28026;48.562;14.440;2023-10-08T09:39:09;16.30;99.90
41592;DHT22;28026;48.562;14.440;2023-10-08T09:41:55;16.20;99.90
41592;DHT22;28026;48.562;14.440;2023-10-08T09:44:27;16.30;99.90
41592;DHT22;28026;48.562;14.440;2023-10-08T09:47:04;16.20;99.90
41592;DHT22;28026;48.562;14.440;2023-10-08T09:49:45;16.30;99.90
41592;DHT22;28026;48.562;14.440;2023-10-08T09:52:36;16.20;99.90
41592;DHT22;28026;48.562;14.440;2023-10-08T09:55:18;16.30;99.90
41592;DHT22;28026;48.562;14.440;2023-10-08T09:57:50;16.10;99.90
41592;DHT22;28026;48.562;14.440;2023-10-08T10:00:23;16.10;99.90
41592;DHT22;28026;48.562;14.440;2023-10-08T10:03:03;16.20;99.90
41592;DHT22;28026;48.562;14.440;2023-10-08T10:05:34;16.20;99.90
41592;DHT22;28026;48.562;14.440;2023-10-08T10:08:08;16.00;99.90
41592;DHT22;28026;48.562;14.440;2023-10-08T10:10:43;15.80;99.90
41592;DHT22;28026;48.562;14.440;2023-10-08T10:13:27;15.60;99.90
41592;DHT22;28026;48.562;14.440;2023-10-08T10:16:04;15.60;99.90
41592;DHT22;28026;48.562;14.440;2023-10-08T10:18:37;15.60;99.90
41592;DHT22;28026;48.562;14.440;2023-10-08T10:26:32;15.40;99.90
41592;DHT22;28026;48.562;14.440;2023-10-08T10:31:49;15.20;99.90
41592;DHT22;28026;48.562;14.440;2023-10-08T10:34:28;15.10;99.90
41592;DHT22;28026;48.562;14.440;2023-10-08T10:37:01;15.10;99.90
41592;DHT22;28026;48.562;14.440;2023-10-08T10:39:56;15.20;99.90
41592;DHT22;28026;48.562;14.440;2023-10-08T10:42:34;15.10;99.90
41592;DHT22;28026;48.562;14.440;2023-10-08T10:45:16;15.10;99.90
41592;DHT22;28026;48.562;14.440;2023-10-08T10:48:05;15.10;99.90
41592;DHT22;28026;48.562;14.440;2023-10-08T10:50:58;15.20;99.90
41592;DHT22;28026;48.562;14.440;2023-10-08T10:53:37;15.20;99.90
41592;DHT22;28026;48.562;14.440;2023-10-08T10:56:27;15.30;99.90
41592;DHT22;28026;48.562;14.440;2023-10-08T10:59:02;15.20;99.90
41592;DHT22;28026;48.562;14.440;2023-10-08T11:01:56;15.40;99.90
41592;DHT22;28026;48.562;14.440;2023-10-08T11:04:38;15.60;99.90
41592;DHT22;28026;48.562;14.440;2023-10-08T11:07:20;15.70;99.90
41592;DHT22;28026;48.562;14.440;2023-10-08T11:09:54;15.30;99.90
41592;DHT22;28026;48.562;14.440;2023-10-08T11:12:25;15.10;99.90
41592;DHT22;28026;48.562;14.440;2023-10-08T11:15:13;15.10;99.90
41592;DHT22;28026;48.562;14.440;2023-10-08T11:17:47;15.10;99.90
41592;DHT22;28026;48.562;14.440;2023-10-08T11:20:27;15.40;99.90
41592;DHT22;28026;48.562;14.440;2023-10-08T11:22:59;15.50;99.90
41592;DHT22;28026;48.562;14.440;2023-10-08T11:25:55;15.40;99.90
41592;DHT22;28026;48.562;14.440;2023-10-08T11:28:34;15.10;99.90
41592;DHT22;28026;48.562;14.440;2023-10-08T11:31:15;14.70;99.90
41592;DHT22;28026;48.562;14.440;2023-10-08T11:33:50;14.60;99.90
41592;DHT22;28026;48.562;14.440;2023-10-08T11:36:28;14.30;99.90
41592;DHT22;28026;48.562;14.440;2023-10-08T11:39:12;14.00;99.90
41592;DHT22;28026;48.562;14.440;2023-10-08T11:41:58;13.70;99.90
41592;DHT22;28026;48.562;14.440;2023-10-08T11:44:47;13.40;99.90
41592;DHT22;28026;48.562;14.440;2023-10-08T11:47:18;13.10;99.90
41592;DHT22;28026;48.562;14.440;2023-10-08T11:49:51;12.80;99.90
41592;DHT22;28026;48.562;14.440;2023-10-08T11:52:39;12.50;99.90
41592;DHT22;28026;48.562;14.440;2023-10-08T11:55:12;12.40;99.90
41592;DHT22;28026;48.562;14.440;2023-10-08T11:57:49;12.40;99.90
41592;DHT22;28026;48.562;14.440;2023-10-08T12:00:20;12.40;99.90
41592;DHT22;28026;48.562;14.440;2023-10-08T12:02:55;12.30;99.90
41592;DHT22;28026;48.562;14.440;2023-10-08T12:05:26;12.10;99.90
41592;DHT22;28026;48.562;14.440;2023-10-08T12:07:59;12.10;99.90
41592;DHT22;28026;48.562;14.440;2023-10-08T12:10:30;12.00;99.90
41592;DHT22;28026;48.562;14.440;2023-10-08T12:13:04;11.80;99.90
41592;DHT22;28026;48.562;14.440;2023-10-08T12:15:36;11.80;99.90
41592;DHT22;28026;48.562;14.440;2023-10-08T12:18:12;11.70;99.90
41592;DHT22;28026;48.562;14.440;2023-10-08T12:20:45;11.70;99.90
41592;DHT22;28026;48.562;14.440;2023-10-08T12:23:17;11.60;99.90
41592;DHT22;28026;48.562;14.440;2023-10-08T12:25:59;11.30;99.90
41592;DHT22;28026;48.562;14.440;2023-10-08T12:28:30;11.20;99.90
41592;DHT22;28026;48.562;14.440;2023-10-08T12:31:03;10.90;99.90
41592;DHT22;28026;48.562;14.440;2023-10-08T12:33:34;10.80;99.90
41592;DHT22;28026;48.562;14.440;2023-10-08T12:36:05;10.80;99.90
41592;DHT22;28026;48.562;14.440;2023-10-08T12:38:42;10.90;99.90
41592;DHT22;28026;48.562;14.440;2023-10-08T12:41:14;10.80;99.90
41592;DHT22;28026;48.562;14.440;2023-10-08T12:43:45;10.80;99.90
41592;DHT22;28026;48.562;14.440;2023-10-08T12:46:16;10.70;99.90
41592;DHT22;28026;48.562;14.440;2023-10-08T12:48:54;10.50;99.90
41592;DHT22;28026;48.562;14.440;2023-10-08T12:51:25;10.40;99.90
41592;DHT22;28026;48.562;14.440;2023-10-08T12:53:56;10.40;99.90
41592;DHT22;28026;48.562;14.440;2023-10-08T12:56:35;10.40;99.90
41592;DHT22;28026;48.562;14.440;2023-10-08T12:59:08;10.30;99.90
41592;DHT22;28026;48.562;14.440;2023-10-08T13:01:46;10.20;99.90
41592;DHT22;28026;48.562;14.440;2023-10-08T13:04:21;10.10;99.90
41592;DHT22;28026;48.562;14.440;2023-10-08T13:06:59;10.10;99.90
41592;DHT22;28026;48.562;14.440;2023-10-08T13:09:33;10.00;99.90
41592;DHT22;28026;48.562;14.440;2023-10-08T13:12:07;10.00;99.90
41592;DHT22;28026;48.562;14.440;2023-10-08T13:14:41;10.10;99.90
41592;DHT22;28026;48.562;14.440;2023-10-08T13:17:15;10.10;99.90
41592;DHT22;28026;48.562;14.440;2023-10-08T13:19:46;10.10;99.90
41592;DHT22;28026;48.562;14.440;2023-10-08T13:22:16;10.00;99.90
41592;DHT22;28026;48.562;14.440;2023-10-08T13:24:50;10.10;99.90
41592;DHT22;28026;48.562;14.440;2023-10-08T13:27:21;10.10;99.90
41592;DHT22;28026;48.562;14.440;2023-10-08T13:29:54;10.20;99.90
41592;DHT22;28026;48.562;14.440;2023-10-08T13:32:25;10.10;99.90
41592;DHT22;28026;48.562;14.440;2023-10-08T13:34:56;10.10;99.90
41592;DHT22;28026;48.562;14.440;2023-10-08T13:37:28;10.00;99.90
41592;DHT22;28026;48.562;14.440;2023-10-08T13:39:59;10.00;99.90
41592;DHT22;28026;48.562;14.440;2023-10-08T13:42:29;9.90;99.90
41592;DHT22;28026;48.562;14.440;2023-10-08T13:45:00;10.00;99.90
41592;DHT22;28026;48.562;14.440;2023-10-08T13:47:38;10.00;99.90
41592;DHT22;28026;48.562;14.440;2023-10-08T13:50:10;10.00;99.90
41592;DHT22;28026;48.562;14.440;2023-10-08T13:52:43;10.20;99.90
41592;DHT22;28026;48.562;14.440;2023-10-08T13:55:14;10.00;99.90
41592;DHT22;28026;48.562;14.440;2023-10-08T13:57:48;10.10;99.90
41592;DHT22;28026;48.562;14.440;2023-10-08T14:00:20;10.30;99.90
41592;DHT22;28026;48.562;14.440;2023-10-08T14:02:56;10.10;99.90
41592;DHT22;28026;48.562;14.440;2023-10-08T14:05:27;10.10;99.90
41592;DHT22;28026;48.562;14.440;2023-10-08T14:08:00;10.20;99.90
41592;DHT22;28026;48.562;14.440;2023-10-08T14:10:32;10.10;99.90
41592;DHT22;28026;48.562;14.440;2023-10-08T14:13:03;10.10;99.90
41592;DHT22;28026;48.562;14.440;2023-10-08T14:15:34;10.10;99.90
41592;DHT22;28026;48.562;14.440;2023-10-08T14:18:12;10.00;99.90
41592;DHT22;28026;48.562;14.440;2023-10-08T14:20:47;10.10;99.90
41592;DHT22;28026;48.562;14.440;2023-10-08T14:23:21;10.00;99.90
41592;DHT22;28026;48.562;14.440;2023-10-08T14:25:54;10.00;99.90
41592;DHT22;28026;48.562;14.440;2023-10-08T14:28:34;10.10;99.90
41592;DHT22;28026;48.562;14.440;2023-10-08T14:31:11;10.10;99.90
41592;DHT22;28026;48.562;14.440;2023-10-08T14:33:45;10.10;99.90
41592;DHT22;28026;48.562;14.440;2023-10-08T14:36:35;10.20;99.90
41592;DHT22;28026;48.562;14.440;2023-10-08T14:39:24;10.20;99.90
41592;DHT22;28026;48.562;14.440;2023-10-08T14:42:14;10.20;99.90
41592;DHT22;28026;48.562;14.440;2023-10-08T14:45:05;10.30;99.90
41592;DHT22;28026;48.562;14.440;2023-10-08T14:47:41;10.40;99.90
41592;DHT22;28026;48.562;14.440;2023-10-08T14:50:12;10.30;99.90
41592;DHT22;28026;48.562;14.440;2023-10-08T14:52:46;10.30;99.90
41592;DHT22;28026;48.562;14.440;2023-10-08T14:55:17;10.40;99.90
41592;DHT22;28026;48.562;14.440;2023-10-08T14:57:52;10.50;99.90
41592;DHT22;28026;48.562;14.440;2023-10-08T15:00:23;10.60;99.90
41592;DHT22;28026;48.562;14.440;2023-10-08T15:02:57;10.30;99.90
41592;DHT22;28026;48.562;14.440;2023-10-08T15:05:33;10.20;99.90
41592;DHT22;28026;48.562;14.440;2023-10-08T15:08:07;10.00;99.90
41592;DHT22;28026;48.562;14.440;2023-10-08T15:10:40;10.00;99.90
41592;DHT22;28026;48.562;14.440;2023-10-08T15:13:11;10.00;99.90
41592;DHT22;28026;48.562;14.440;2023-10-08T15:15:42;9.90;99.90
41592;DHT22;28026;48.562;14.440;2023-10-08T15:18:13;9.90;99.90
41592;DHT22;28026;48.562;14.440;2023-10-08T15:20:44;9.80;99.90
41592;DHT22;28026;48.562;14.440;2023-10-08T15:23:17;9.70;99.90
41592;DHT22;28026;48.562;14.440;2023-10-08T15:25:50;9.90;99.90
41592;DHT22;28026;48.562;14.440;2023-10-08T15:28:21;10.00;99.90
41592;DHT22;28026;48.562;14.440;2023-10-08T15:30:52;9.90;99.90
41592;DHT22;28026;48.562;14.440;2023-10-08T15:33:23;9.90;99.90
41592;DHT22;28026;48.562;14.440;2023-10-08T15:35:56;9.90;99.90
41592;DHT22;28026;48.562;14.440;2023-10-08T15:38:28;10.00;99.90
41592;DHT22;28026;48.562;14.440;2023-10-08T15:41:01;10.10;99.90
41592;DHT22;28026;48.562;14.440;2023-10-08T15:43:32;10.10;99.90
41592;DHT22;28026;48.562;14.440;2023-10-08T15:46:04;10.10;99.90
41592;DHT22;28026;48.562;14.440;2023-10-08T15:48:36;10.00;99.90
41592;DHT22;28026;48.562;14.440;2023-10-08T15:51:07;9.90;99.90
41592;DHT22;28026;48.562;14.440;2023-10-08T15:53:38;9.80;99.90
41592;DHT22;28026;48.562;14.440;2023-10-08T15:56:10;9.80;99.90
41592;DHT22;28026;48.562;14.440;2023-10-08T15:58:40;9.80;99.90
41592;DHT22;28026;48.562;14.440;2023-10-08T16:01:11;9.70;99.90
41592;DHT22;28026;48.562;14.440;2023-10-08T16:03:42;9.80;99.90
41592;DHT22;28026;48.562;14.440;2023-10-08T16:06:13;9.70;99.90
41592;DHT22;28026;48.562;14.440;2023-10-08T16:08:45;9.70;99.90
41592;DHT22;28026;48.562;14.440;2023-10-08T16:11:17;9.60;99.90
41592;DHT22;28026;48.562;14.440;2023-10-08T16:13:50;9.50;99.90
41592;DHT22;28026;48.562;14.440;2023-10-08T16:16:20;9.60;99.90
41592;DHT22;28026;48.562;14.440;2023-10-08T16:18:51;9.60;99.90
41592;DHT22;28026;48.562;14.440;2023-10-08T16:21:22;9.70;99.90
41592;DHT22;28026;48.562;14.440;2023-10-08T16:23:53;9.80;99.90